createdAt,value
2023-01-08T00:00:37.307Z,31.00
2023-01-08T00:02:44.310Z,28.55
2023-01-08T00:04:51.818Z,27.92
2023-01-08T00:07:00.509Z,27.55
2023-01-08T00:09:07.946Z,26.65
2023-01-08T00:11:15.307Z,28.88
2023-01-08T00:13:22.484Z,29.38
2023-01-08T00:15:29.561Z,30.42
2023-01-08T00:17:36.643Z,34.33
2023-01-08T00:19:44.284Z,33.67
2023-01-08T00:21:51.572Z,34.00
2023-01-08T00:24:00.283Z,33.88
2023-01-08T00:26:08.394Z,33.17
2023-01-08T00:28:16.083Z,35.63
2023-01-08T00:30:23.417Z,35.92
2023-01-08T00:32:30.599Z,35.22
2023-01-08T00:34:37.730Z,35.95
2023-01-08T00:36:45.172Z,36.50
2023-01-08T00:38:52.245Z,37.83
2023-01-08T00:41:01.349Z,38.72
2023-01-08T00:43:08.200Z,38.75
2023-01-08T00:45:15.685Z,38.50
2023-01-08T00:47:22.764Z,37.88
2023-01-08T00:49:30.199Z,38.55
2023-01-08T00:51:37.131Z,37.58
2023-01-08T00:53:44.460Z,39.13
2023-01-08T00:55:51.900Z,38.33
2023-01-08T00:58:00.825Z,37.22
2023-01-08T01:00:09.751Z,36.42
2023-01-08T01:02:17.024Z,38.10
2023-01-08T01:04:24.161Z,38.30
2023-01-08T01:06:31.543Z,38.38
2023-01-08T01:08:38.880Z,37.90
2023-01-08T01:10:46.265Z,32.92
2023-01-08T01:12:53.455Z,32.17
2023-01-08T01:15:02.327Z,32.50
2023-01-08T01:17:09.244Z,33.95
2023-01-08T01:19:16.683Z,35.53
2023-01-08T01:21:26.422Z,34.80
2023-01-08T01:23:33.811Z,32.17
2023-01-08T01:25:42.282Z,32.92
2023-01-08T01:27:50.992Z,34.33
2023-01-08T01:29:58.681Z,31.95
2023-01-08T01:32:07.658Z,29.85
2023-01-08T01:34:14.785Z,29.77
2023-01-08T01:36:24.595Z,28.60
2023-01-08T01:38:31.878Z,29.48
2023-01-08T01:40:38.938Z,29.90
2023-01-08T01:42:46.277Z,30.88
2023-01-08T01:44:53.203Z,29.88
2023-01-08T01:47:01.049Z,29.77
2023-01-08T01:49:13.044Z,30.40
2023-01-08T01:53:30.173Z,29.85
2023-01-08T01:55:39.757Z,28.60
2023-01-08T01:57:56.156Z,27.35
2023-01-08T02:00:06.971Z,27.48
2023-01-08T02:02:19.664Z,25.30
2023-01-08T02:04:29.587Z,23.25
2023-01-08T02:06:41.062Z,27.80
2023-01-08T02:08:59.302Z,25.50
2023-01-08T02:11:13.293Z,23.67
2023-01-08T02:13:24.808Z,24.48
2023-01-08T02:15:39.689Z,23.15
2023-01-08T02:17:52.866Z,23.15
2023-01-08T02:20:06.142Z,24.75
2023-01-08T02:22:22.230Z,24.90
2023-01-08T02:24:39.854Z,22.42
2023-01-08T02:26:50.005Z,23.60
2023-01-08T02:29:00.820Z,25.10
2023-01-08T02:31:09.432Z,26.73
2023-01-08T02:33:16.462Z,25.80
2023-01-08T02:35:23.798Z,24.55
2023-01-08T02:37:30.773Z,24.88
2023-01-08T02:39:53.317Z,23.92
2023-01-08T02:42:12.429Z,25.27
2023-01-08T02:44:29.441Z,25.25
2023-01-08T02:46:41.177Z,22.80
2023-01-08T02:48:51.738Z,22.77
2023-01-08T02:51:02.915Z,22.33
2023-01-08T02:53:17.014Z,22.33
2023-01-08T02:55:26.497Z,21.60
2023-01-08T02:57:37.309Z,21.38
2023-01-08T02:59:46.639Z,20.40
2023-01-08T03:01:55.122Z,20.23
2023-01-08T03:04:07.775Z,21.38
2023-01-08T03:06:18.642Z,20.42
2023-01-08T03:08:26.324Z,19.83
2023-01-08T03:10:35.719Z,19.80
2023-01-08T03:12:56.764Z,19.85
2023-01-08T03:15:09.432Z,18.70
2023-01-08T03:17:22.842Z,19.05
2023-01-08T03:19:35.906Z,19.65
2023-01-08T03:21:45.719Z,19.63
2023-01-08T03:23:54.644Z,19.27
2023-01-08T03:26:03.562Z,20.55
2023-01-08T03:28:17.143Z,18.38
2023-01-08T03:30:26.122Z,18.83
2023-01-08T03:32:34.167Z,19.25
2023-01-08T03:34:43.636Z,19.10
2023-01-08T03:36:53.700Z,20.05
2023-01-08T03:39:04.573Z,18.88
2023-01-08T03:41:14.722Z,18.65
2023-01-08T03:43:23.746Z,21.00
2023-01-08T03:45:33.493Z,19.85
2023-01-08T03:47:42.366Z,17.83
2023-01-08T03:49:50.570Z,17.60
2023-01-08T03:51:57.750Z,17.27
2023-01-08T03:54:04.880Z,16.88
2023-01-08T03:56:12.312Z,19.83
2023-01-08T03:58:19.395Z,15.18
2023-01-08T04:00:28.628Z,15.70
2023-01-08T04:02:35.687Z,15.95
2023-01-08T04:04:42.963Z,18.35
2023-01-08T04:06:49.963Z,17.05
2023-01-08T04:08:57.349Z,32.72
2023-01-08T04:11:04.434Z,52.08
2023-01-08T04:13:11.971Z,19.48
2023-01-08T04:15:19.101Z,37.92
2023-01-08T04:17:28.333Z,17.35
2023-01-08T04:19:35.359Z,14.98
2023-01-08T04:21:42.856Z,16.00
2023-01-08T04:23:50.437Z,13.43
2023-01-08T04:25:58.027Z,15.80
2023-01-08T04:28:05.008Z,17.08
2023-01-08T04:30:13.519Z,19.55
2023-01-08T04:32:20.446Z,15.98
2023-01-08T04:34:29.372Z,12.60
2023-01-08T04:36:36.339Z,13.98
2023-01-08T04:38:43.573Z,13.90
2023-01-08T04:40:50.603Z,13.18
2023-01-08T04:42:57.936Z,13.35
2023-01-08T04:45:05.223Z,14.30
2023-01-08T04:47:12.504Z,14.38
2023-01-08T04:49:19.483Z,14.45
2023-01-08T04:51:28.661Z,14.50
2023-01-08T04:53:38.898Z,15.23
2023-01-08T04:55:46.182Z,15.40
2023-01-08T04:57:53.176Z,14.68
2023-01-08T05:00:00.579Z,16.65
2023-01-08T05:02:07.698Z,15.00
2023-01-08T05:04:15.385Z,16.40
2023-01-08T05:06:22.418Z,15.88
2023-01-08T05:08:31.440Z,16.33
2023-01-08T05:10:38.415Z,16.50
2023-01-08T05:12:45.800Z,18.38
2023-01-08T05:14:52.822Z,14.27
2023-01-08T05:17:00.161Z,17.40
2023-01-08T05:19:07.196Z,16.20
2023-01-08T05:21:14.726Z,14.20
2023-01-08T05:23:21.744Z,12.43
2023-01-08T05:25:30.733Z,13.73
2023-01-08T05:27:37.662Z,11.95
2023-01-08T05:29:45.052Z,12.30
2023-01-08T05:31:52.075Z,19.67
2023-01-08T05:34:01.873Z,11.40
2023-01-08T05:36:10.394Z,11.52
2023-01-08T05:38:17.670Z,11.90
2023-01-08T05:40:24.716Z,11.43
2023-01-08T05:42:33.791Z,12.13
2023-01-08T05:44:40.644Z,10.73
2023-01-08T05:46:47.879Z,10.13
2023-01-08T05:48:54.851Z,10.10
2023-01-08T05:51:02.293Z,10.65
2023-01-08T05:53:11.006Z,11.93
2023-01-08T05:55:18.087Z,11.93
2023-01-08T05:57:26.084Z,11.05
2023-01-08T05:59:34.714Z,11.52
2023-01-08T06:01:42.099Z,11.18
2023-01-08T06:03:49.281Z,9.85
2023-01-08T06:05:56.657Z,10.63
2023-01-08T06:08:04.199Z,11.00
2023-01-08T06:10:12.199Z,11.27
2023-01-08T06:12:19.186Z,11.30
2023-01-08T06:14:26.722Z,10.82
2023-01-08T06:16:35.442Z,11.18
2023-01-08T06:18:42.980Z,11.63
2023-01-08T06:20:49.951Z,12.13
2023-01-08T06:22:58.106Z,11.68
2023-01-08T06:25:05.296Z,11.32
2023-01-08T06:27:12.628Z,11.98
2023-01-08T06:29:19.547Z,12.98
2023-01-08T06:31:26.952Z,13.05
2023-01-08T06:33:35.851Z,13.18
2023-01-08T06:35:42.951Z,13.55
2023-01-08T06:37:49.859Z,14.18
2023-01-08T06:39:57.042Z,14.13
2023-01-08T06:42:04.376Z,14.43
2023-01-08T06:44:12.992Z,14.45
2023-01-08T06:46:20.259Z,14.77
2023-01-08T06:48:27.772Z,14.25
2023-01-08T06:50:37.966Z,14.57
2023-01-08T06:52:44.995Z,15.00
2023-01-08T06:54:52.383Z,14.73
2023-01-08T06:56:59.358Z,14.98
2023-01-08T06:59:06.897Z,13.82
2023-01-08T07:01:18.283Z,13.65
2023-01-08T07:05:34.602Z,14.45
2023-01-08T07:07:42.235Z,14.07
2023-01-08T07:09:49.462Z,12.98
2023-01-08T07:11:56.849Z,14.88
2023-01-08T07:14:03.775Z,13.32
2023-01-08T07:16:11.500Z,14.15
2023-01-08T07:18:18.450Z,14.35
2023-01-08T07:20:25.881Z,14.18
2023-01-08T07:22:34.547Z,14.07
2023-01-08T07:24:41.888Z,14.20
2023-01-08T07:26:49.116Z,16.85
2023-01-08T07:28:56.553Z,13.85
2023-01-08T07:31:07.531Z,13.52
2023-01-08T07:33:14.810Z,15.18
2023-01-08T07:35:21.735Z,13.98
2023-01-08T07:37:29.230Z,15.10
2023-01-08T07:39:37.896Z,13.95
2023-01-08T07:41:45.737Z,13.57
2023-01-08T07:43:52.917Z,14.25
2023-01-08T07:46:01.087Z,13.75
2023-01-08T07:48:08.306Z,16.75
2023-01-08T07:50:15.643Z,16.13
2023-01-08T07:52:22.977Z,15.07
2023-01-08T07:54:30.416Z,15.07
2023-01-08T07:56:39.130Z,15.70
2023-01-08T07:58:46.518Z,16.55
2023-01-08T08:00:53.528Z,16.40
2023-01-08T08:03:06.803Z,14.40
2023-01-08T08:05:14.002Z,15.18
2023-01-08T08:07:21.297Z,14.05
2023-01-08T08:09:28.517Z,15.32
2023-01-08T08:11:39.541Z,14.00
2023-01-08T08:13:46.673Z,15.30
2023-01-08T08:15:54.097Z,15.45
2023-01-08T08:18:01.141Z,15.65
2023-01-08T08:20:09.350Z,16.33
2023-01-08T08:22:16.676Z,14.50
2023-01-08T08:24:24.065Z,13.85
2023-01-08T08:26:31.088Z,14.80
2023-01-08T08:28:40.327Z,13.93
2023-01-08T08:30:47.399Z,15.85
2023-01-08T08:32:54.685Z,15.75
2023-01-08T08:35:01.871Z,15.90
2023-01-08T08:37:09.977Z,16.52
2023-01-08T08:39:17.003Z,15.32
2023-01-08T08:41:24.701Z,15.82
2023-01-08T08:43:32.195Z,14.80
2023-01-08T08:45:41.664Z,14.50
2023-01-08T08:47:48.650Z,13.82
2023-01-08T08:49:55.875Z,14.57
2023-01-08T08:52:03.275Z,14.10
2023-01-08T08:54:10.552Z,15.18
2023-01-08T08:56:17.522Z,14.90
2023-01-08T08:58:24.702Z,13.85
2023-01-08T09:00:31.733Z,13.60
2023-01-08T09:02:40.857Z,16.23
2023-01-08T09:04:48.051Z,17.63
2023-01-08T09:06:55.272Z,18.25
2023-01-08T09:09:02.462Z,16.98
2023-01-08T09:11:09.740Z,15.80
2023-01-08T09:13:16.875Z,16.65
2023-01-08T09:15:24.270Z,16.20
2023-01-08T09:17:31.289Z,17.45
2023-01-08T09:19:40.364Z,17.55
2023-01-08T09:21:47.438Z,16.85
2023-01-08T09:23:54.622Z,17.90
2023-01-08T09:26:04.113Z,17.98
2023-01-08T09:28:14.213Z,18.90
2023-01-08T09:30:21.236Z,20.80
2023-01-08T09:32:28.209Z,18.67
2023-01-08T09:34:37.090Z,17.73
2023-01-08T09:36:45.851Z,19.73
2023-01-08T09:38:52.930Z,21.95
2023-01-08T09:41:03.318Z,18.98
2023-01-08T09:43:12.472Z,24.85
2023-01-08T09:45:29.279Z,17.92
2023-01-08T09:47:40.145Z,18.00
2023-01-08T09:49:49.528Z,17.83
2023-01-08T09:51:58.447Z,17.08
2023-01-08T09:54:06.549Z,18.38
2023-01-08T09:56:17.624Z,17.17
2023-01-08T09:58:31.362Z,17.17
2023-01-08T10:00:38.943Z,16.45
2023-01-08T10:02:46.526Z,19.08
2023-01-08T10:04:57.717Z,18.30
2023-01-08T10:07:15.342Z,19.38
2023-01-08T10:09:24.867Z,19.10
2023-01-08T10:11:37.281Z,17.00
2023-01-08T10:13:48.410Z,17.58
2023-01-08T10:15:55.666Z,18.00
2023-01-08T10:18:06.252Z,21.50
2023-01-08T10:20:15.998Z,18.70
2023-01-08T10:22:26.092Z,22.23
2023-01-08T10:24:37.884Z,19.05
2023-01-08T10:26:45.217Z,18.33
2023-01-08T10:28:52.090Z,18.45
2023-01-08T10:31:07.187Z,17.23
2023-01-08T10:33:19.256Z,18.98
2023-01-08T10:35:34.834Z,18.58
2023-01-08T10:37:48.110Z,17.23
2023-01-08T10:39:57.289Z,21.05
2023-01-08T10:42:09.803Z,19.65
2023-01-08T10:44:22.095Z,18.23
2023-01-08T10:46:32.053Z,17.70
2023-01-08T10:48:40.678Z,19.02
2023-01-08T10:50:48.933Z,19.42
2023-01-08T10:53:02.245Z,20.92
2023-01-08T10:55:17.305Z,23.20
2023-01-08T10:57:29.815Z,23.98
2023-01-08T10:59:40.372Z,23.45
2023-01-08T11:01:51.129Z,22.75
2023-01-08T11:04:01.036Z,22.17
2023-01-08T11:06:16.100Z,19.63
2023-01-08T11:08:26.611Z,20.30
2023-01-08T11:10:34.099Z,19.42
2023-01-08T11:12:42.663Z,18.15
2023-01-08T11:14:51.739Z,18.00
2023-01-08T11:16:59.997Z,17.65
2023-01-08T11:19:08.822Z,16.60
2023-01-08T11:21:23.662Z,17.00
2023-01-08T11:23:32.399Z,16.45
2023-01-08T11:25:41.358Z,18.45
2023-01-08T11:27:49.830Z,16.70
2023-01-08T11:30:02.906Z,17.13
2023-01-08T11:32:35.067Z,17.15
2023-01-08T11:34:51.925Z,17.77
2023-01-08T11:37:05.567Z,18.25
2023-01-08T11:39:15.300Z,17.17
2023-01-08T11:41:37.489Z,18.10
2023-01-08T11:43:54.704Z,18.42
2023-01-08T11:46:25.125Z,18.85
2023-01-08T11:48:44.241Z,18.52
2023-01-08T11:51:06.157Z,18.05
2023-01-08T11:53:24.613Z,17.58
2023-01-08T11:55:46.547Z,18.25
2023-01-08T11:58:24.201Z,17.75
2023-01-08T12:00:50.316Z,18.70
2023-01-08T12:02:59.582Z,18.58
2023-01-08T12:05:33.657Z,18.13
2023-01-08T12:07:51.014Z,19.42
2023-01-08T12:10:04.606Z,18.42
2023-01-08T12:12:27.051Z,19.30
2023-01-08T12:17:07.833Z,19.67
2023-01-08T12:19:31.189Z,18.88
2023-01-08T12:21:48.511Z,19.77
2023-01-08T12:24:22.521Z,19.45
2023-01-08T12:26:38.510Z,20.08
2023-01-08T12:29:10.626Z,18.52
2023-01-08T12:31:35.704Z,20.55
2023-01-08T12:33:46.491Z,20.20
2023-01-08T12:35:57.616Z,20.35
2023-01-08T12:38:08.285Z,19.92
2023-01-08T12:40:22.166Z,20.27
2023-01-08T12:42:32.831Z,20.75
2023-01-08T12:44:43.487Z,20.80
2023-01-08T12:46:52.418Z,20.55
2023-01-08T12:49:00.927Z,21.95
2023-01-08T12:51:19.080Z,21.05
2023-01-08T12:53:37.820Z,21.42
2023-01-08T12:55:56.887Z,21.58
2023-01-08T12:58:15.445Z,20.92
2023-01-08T13:00:34.539Z,21.77
2023-01-08T13:02:54.074Z,21.63
2023-01-08T13:05:01.197Z,21.60
2023-01-08T13:07:09.089Z,21.88
2023-01-08T13:09:26.251Z,21.33
2023-01-08T13:11:37.995Z,22.55
2023-01-08T13:13:46.814Z,21.90
2023-01-08T13:15:55.890Z,21.33
2023-01-08T13:18:09.056Z,21.27
2023-01-08T13:20:25.509Z,21.17
2023-01-08T13:22:34.181Z,22.17
2023-01-08T13:24:43.816Z,21.48
2023-01-08T13:26:50.999Z,21.00
2023-01-08T13:29:08.936Z,21.10
2023-01-08T13:31:31.865Z,20.70
2023-01-08T13:33:45.263Z,19.92
2023-01-08T13:35:52.239Z,20.95
2023-01-08T13:38:16.843Z,20.73
2023-01-08T13:40:54.319Z,21.75
2023-01-08T13:43:04.011Z,22.60
2023-01-08T13:45:16.156Z,20.10
2023-01-08T13:47:30.925Z,20.77
2023-01-08T13:49:44.087Z,20.58
2023-01-08T13:51:51.678Z,21.98
2023-01-08T13:54:01.520Z,22.08
2023-01-08T13:56:13.210Z,20.80
2023-01-08T13:58:21.671Z,21.63
2023-01-08T14:00:33.245Z,21.08
2023-01-08T14:02:51.301Z,20.83
2023-01-08T14:04:58.947Z,21.52
2023-01-08T14:07:16.974Z,20.83
2023-01-08T14:09:26.356Z,20.80
2023-01-08T14:11:36.760Z,21.10
2023-01-08T14:13:46.046Z,20.85
2023-01-08T14:15:53.128Z,20.98
2023-01-08T14:18:03.989Z,21.33
2023-01-08T14:20:18.494Z,20.90
2023-01-08T14:22:30.489Z,20.88
2023-01-08T14:24:38.436Z,20.95
2023-01-08T14:26:47.923Z,19.98
2023-01-08T14:28:58.129Z,20.58
2023-01-08T14:31:05.516Z,20.63
2023-01-08T14:33:17.398Z,19.90
2023-01-08T14:35:33.555Z,19.45
2023-01-08T14:37:40.509Z,19.73
2023-01-08T14:39:49.551Z,19.27
2023-01-08T14:42:14.587Z,19.17
2023-01-08T14:44:29.087Z,19.85
2023-01-08T14:46:45.532Z,18.85
2023-01-08T14:48:55.700Z,20.13
2023-01-08T14:51:08.500Z,19.38
2023-01-08T14:53:23.910Z,19.48
2023-01-08T14:55:32.196Z,19.25
2023-01-08T14:57:39.473Z,20.17
2023-01-08T14:59:51.575Z,19.52
2023-01-08T15:02:01.910Z,19.38
2023-01-08T15:04:18.227Z,19.60
2023-01-08T15:06:30.274Z,19.92
2023-01-08T15:08:39.196Z,19.30
2023-01-08T15:10:46.579Z,19.10
2023-01-08T15:13:02.008Z,20.13
2023-01-08T15:15:15.714Z,20.40
2023-01-08T15:17:25.387Z,19.65
2023-01-08T15:19:36.710Z,18.48
2023-01-08T15:21:50.498Z,19.73
2023-01-08T15:23:59.316Z,19.33
2023-01-08T15:26:06.599Z,19.42
2023-01-08T15:28:22.130Z,19.73
2023-01-08T15:30:34.108Z,18.50
2023-01-08T15:34:50.198Z,19.85
2023-01-08T15:36:57.112Z,18.15
2023-01-08T15:39:04.384Z,18.67
2023-01-08T15:41:14.132Z,18.92
2023-01-08T15:43:22.689Z,19.73
2023-01-08T15:45:32.956Z,19.05
2023-01-08T15:47:40.329Z,19.38
2023-01-08T15:49:48.884Z,18.90
2023-01-08T15:51:56.489Z,18.80
2023-01-08T15:54:03.874Z,18.73
2023-01-08T15:56:11.413Z,19.52
2023-01-08T15:58:19.127Z,20.27
2023-01-08T16:00:26.746Z,19.40
2023-01-08T16:02:33.694Z,19.65
2023-01-08T16:04:40.855Z,20.48
2023-01-08T16:06:50.034Z,19.63
2023-01-08T16:09:00.899Z,19.83
2023-01-08T16:11:08.083Z,20.13
2023-01-08T16:13:15.418Z,19.45
2023-01-08T16:15:23.111Z,19.30
2023-01-08T16:17:32.753Z,20.17
2023-01-08T16:19:39.830Z,20.33
2023-01-08T16:21:51.215Z,20.00
2023-01-08T16:23:58.085Z,20.50
2023-01-08T16:26:09.619Z,20.88
2023-01-08T16:28:16.700Z,20.83
2023-01-08T16:30:23.983Z,20.65
2023-01-08T16:32:30.786Z,20.20
2023-01-08T16:34:38.147Z,20.17
2023-01-08T16:36:45.129Z,20.48
2023-01-08T16:38:54.551Z,21.15
2023-01-08T16:41:02.346Z,21.25
2023-01-08T16:43:09.686Z,20.77
2023-01-08T16:45:16.660Z,20.38
2023-01-08T16:47:23.994Z,21.05
2023-01-08T16:49:31.483Z,20.92
2023-01-08T16:51:39.083Z,20.65
2023-01-08T16:53:46.567Z,21.52
2023-01-08T16:55:56.561Z,20.02
2023-01-08T16:58:03.538Z,21.20
2023-01-08T17:00:12.156Z,21.67
2023-01-08T17:02:20.262Z,21.60
2023-01-08T17:04:27.542Z,22.33
2023-01-08T17:06:34.670Z,22.45
2023-01-08T17:08:43.341Z,21.88
2023-01-08T17:10:50.724Z,23.02
2023-01-08T17:13:00.979Z,24.27
2023-01-08T17:15:08.569Z,24.10
2023-01-08T17:17:15.784Z,22.92
2023-01-08T17:19:22.815Z,22.05
2023-01-08T17:21:30.280Z,22.08
2023-01-08T17:23:37.557Z,22.92
2023-01-08T17:25:44.736Z,21.92
2023-01-08T17:27:53.916Z,22.48
2023-01-08T17:30:03.089Z,22.30
2023-01-08T17:32:10.987Z,21.75
2023-01-08T17:34:18.271Z,22.13
2023-01-08T17:36:26.990Z,22.13
2023-01-08T17:38:34.175Z,21.60
2023-01-08T17:40:41.455Z,22.23
2023-01-08T17:42:48.696Z,20.25
2023-01-08T17:44:57.360Z,22.45
2023-01-08T17:47:06.326Z,20.95
2023-01-08T17:49:13.609Z,20.83
2023-01-08T17:51:20.999Z,21.25
2023-01-08T17:53:28.202Z,20.23
2023-01-08T17:55:35.561Z,20.83
2023-01-08T17:57:42.492Z,20.25
2023-01-08T17:59:50.287Z,20.77
2023-01-08T18:01:58.736Z,20.20
2023-01-08T18:04:08.032Z,18.95
2023-01-08T18:06:15.911Z,19.77
2023-01-08T18:08:23.264Z,19.02
2023-01-08T18:10:30.295Z,19.38
2023-01-08T18:12:37.681Z,19.75
2023-01-08T18:14:45.218Z,17.52
2023-01-08T18:16:52.505Z,19.25
2023-01-08T18:19:00.966Z,18.77
2023-01-08T18:21:11.015Z,19.00
2023-01-08T18:23:17.819Z,19.10
2023-01-08T18:25:24.866Z,18.88
2023-01-08T18:27:31.749Z,19.20
2023-01-08T18:29:38.920Z,19.35
2023-01-08T18:31:46.432Z,19.05
2023-01-08T18:33:54.568Z,18.05
2023-01-08T18:36:07.206Z,18.42
2023-01-08T18:38:16.799Z,18.83
2023-01-08T18:40:23.839Z,18.38
2023-01-08T18:42:31.279Z,18.80
2023-01-08T18:44:39.771Z,18.50
2023-01-08T18:46:48.233Z,18.00
2023-01-08T18:48:56.500Z,18.17
2023-01-08T18:51:06.456Z,17.38
2023-01-08T18:53:15.182Z,18.92
2023-01-08T18:55:23.074Z,19.60
2023-01-08T18:57:30.189Z,18.17
2023-01-08T18:59:37.536Z,18.00
2023-01-08T19:01:44.652Z,23.58
2023-01-08T19:03:52.110Z,20.20
2023-01-08T19:05:58.979Z,21.67
2023-01-08T19:08:06.213Z,19.83
2023-01-08T19:10:16.035Z,20.80
2023-01-08T19:12:23.390Z,20.63
2023-01-08T19:14:30.206Z,21.05
2023-01-08T19:16:37.448Z,20.75
2023-01-08T19:18:44.685Z,21.25
2023-01-08T19:20:51.951Z,21.83
2023-01-08T19:22:58.992Z,21.33
2023-01-08T19:25:06.482Z,20.83
2023-01-08T19:27:15.504Z,20.95
2023-01-08T19:29:23.044Z,20.02
2023-01-08T19:31:30.109Z,19.75
2023-01-08T19:33:37.259Z,21.48
2023-01-08T19:35:44.280Z,20.23
2023-01-08T19:37:51.524Z,19.85
2023-01-08T19:40:02.095Z,19.33
2023-01-08T19:42:25.731Z,18.40
2023-01-08T19:44:34.552Z,18.33
2023-01-08T19:46:41.798Z,20.35
2023-01-08T19:48:48.727Z,25.38
2023-01-08T19:50:55.853Z,28.50
2023-01-08T19:53:02.810Z,28.52
2023-01-08T19:55:10.626Z,26.35
2023-01-08T19:57:17.499Z,23.17
2023-01-08T19:59:25.809Z,23.02
2023-01-08T20:01:34.924Z,20.50
2023-01-08T20:03:42.117Z,24.08
2023-01-08T20:05:49.196Z,20.38
2023-01-08T20:07:56.332Z,22.30
2023-01-08T20:10:03.616Z,22.25
2023-01-08T20:12:11.464Z,22.02
2023-01-08T20:14:20.812Z,21.80
2023-01-08T20:16:28.750Z,21.75
2023-01-08T20:18:38.490Z,20.83
2023-01-08T20:20:45.339Z,21.15
2023-01-08T20:22:52.435Z,20.70
2023-01-08T20:24:59.470Z,21.23
2023-01-08T20:27:06.601Z,21.52
2023-01-08T20:29:14.139Z,20.75
2023-01-08T20:31:22.581Z,20.83
2023-01-08T20:33:29.577Z,22.00
2023-01-08T20:35:40.235Z,20.05
2023-01-08T20:37:47.162Z,19.58
2023-01-08T20:39:54.652Z,19.92
2023-01-08T20:42:04.696Z,20.83
2023-01-08T20:44:12.037Z,19.65
2023-01-08T20:46:19.112Z,20.88
2023-01-08T20:48:28.382Z,20.58
2023-01-08T20:50:37.172Z,20.35
2023-01-08T20:52:44.608Z,21.40
2023-01-08T20:54:51.834Z,21.20
2023-01-08T20:56:59.915Z,21.40
2023-01-08T20:59:07.220Z,20.63
2023-01-08T21:01:16.689Z,19.75
2023-01-08T21:03:24.044Z,20.02
2023-01-08T21:05:31.223Z,20.02
2023-01-08T21:07:39.991Z,20.95
2023-01-08T21:09:47.685Z,21.10
2023-01-08T21:11:54.733Z,20.67
2023-01-08T21:14:02.815Z,21.30
2023-01-08T21:16:11.821Z,21.38
2023-01-08T21:18:19.075Z,20.77
2023-01-08T21:20:25.954Z,22.13
2023-01-08T21:22:33.131Z,21.65
2023-01-08T21:24:42.616Z,21.00
2023-01-08T21:26:50.006Z,22.52
2023-01-08T21:28:57.489Z,21.08
2023-01-08T21:31:08.979Z,22.25
2023-01-08T21:33:16.001Z,21.98
2023-01-08T21:35:23.491Z,21.35
2023-01-08T21:37:32.360Z,21.65
2023-01-08T21:39:41.386Z,22.58
2023-01-08T21:42:04.899Z,22.08
2023-01-08T21:44:33.637Z,22.85
2023-01-08T21:46:40.716Z,23.38
2023-01-08T21:48:50.978Z,22.45
2023-01-08T21:50:58.004Z,22.65
2023-01-08T21:53:21.614Z,21.50
2023-01-08T21:55:30.433Z,22.20
2023-01-08T21:57:42.638Z,22.25
2023-01-08T21:59:52.893Z,21.90
2023-01-08T22:01:59.986Z,22.20
2023-01-08T22:04:07.172Z,23.23
2023-01-08T22:06:14.430Z,22.13
2023-01-08T22:08:21.563Z,21.88
2023-01-08T22:10:30.125Z,22.20
2023-01-08T22:12:37.394Z,21.95
2023-01-08T22:14:44.451Z,21.88
2023-01-08T22:16:51.722Z,20.98
2023-01-08T22:18:58.857Z,21.20
2023-01-08T22:21:07.471Z,21.67
2023-01-08T22:23:14.495Z,21.95
2023-01-08T22:25:21.986Z,21.58
2023-01-08T22:27:31.429Z,21.40
2023-01-08T22:29:38.819Z,21.95
2023-01-08T22:31:45.942Z,21.45
2023-01-08T22:33:57.220Z,21.50
2023-01-08T22:36:05.989Z,21.42
2023-01-08T22:38:13.113Z,21.45
2023-01-08T22:40:20.653Z,21.15
2023-01-08T22:42:29.715Z,21.40
2023-01-08T22:44:36.867Z,21.58
2023-01-08T22:46:44.860Z,21.92
2023-01-08T22:48:52.031Z,22.67
2023-01-08T22:50:59.282Z,22.05
2023-01-08T22:53:06.151Z,24.38
2023-01-08T22:55:14.007Z,23.95
2023-01-08T22:57:21.025Z,23.38
2023-01-08T22:59:30.204Z,23.20
2023-01-08T23:01:37.273Z,22.17
2023-01-08T23:03:45.733Z,21.77
2023-01-08T23:05:52.771Z,23.20
2023-01-08T23:08:00.005Z,23.10
2023-01-08T23:10:07.346Z,22.25
2023-01-08T23:12:14.572Z,22.13
2023-01-08T23:14:21.448Z,22.80
2023-01-08T23:16:30.460Z,22.33
2023-01-08T23:18:38.371Z,22.30
2023-01-08T23:20:45.961Z,22.38
2023-01-08T23:22:52.846Z,23.50
2023-01-08T23:25:00.069Z,22.58
2023-01-08T23:27:07.002Z,22.63
2023-01-08T23:29:14.481Z,23.60
2023-01-08T23:31:24.561Z,22.33
2023-01-08T23:33:33.606Z,22.85
2023-01-08T23:35:40.688Z,21.98
2023-01-08T23:37:47.766Z,22.90
2023-01-08T23:39:54.907Z,23.52
2023-01-08T23:42:02.217Z,23.45
2023-01-08T23:44:10.781Z,22.98
2023-01-08T23:46:18.184Z,24.38
2023-01-08T23:48:25.110Z,22.65
2023-01-08T23:50:34.238Z,24.92
2023-01-08T23:52:41.176Z,25.35
2023-01-08T23:54:48.800Z,24.23
2023-01-08T23:56:55.882Z,27.65
2023-01-08T23:59:03.113Z,26.77
